Wiggins, CO (80654)

2:53 AM MST on February 13, 2016 (GMT -0700)
M | | Change Station
CLOSE
Current Station
Personal Weather Station
Location: Wiggins, CO
Elevation: 4656 ft
Nearby Weather Stations

Elev 4656 ft 40.11 °N, 104.02 °W | Updated 2 seconds ago

Partly Cloudy
Partly Cloudy
30.4 °F
Feels Like 26 °F
N
4.3
Wind Variable Wind from WNW
Gusts 4.9 mph

Today
High -- | Low -- °F
--% Chance of Precip.
Yesterday
High -- | Low -- °F
Precip. -- in
Pressure 30.16 in
Visibility 7.0 miles
Clouds Clear
Windchill 26 °F
Dew Point 28 °F
Humidity 92%
Rainfall 0.00 in
Snow Depth Not available.
6:52 AM 5:28 PM
Waxing Crescent, 29% visible
METAR KFMM 130935Z AUTO 12006KT 7SM CLR M01/M02 A3016 RMK AO2 T10111016
Pressure 30.16 in
Visibility 7.0 miles
Clouds Clear
Windchill 26 °F
Dew Point 28 °F
Humidity 92%
Rainfall 0.00 in
Snow Depth Not available.
6:52 AM 5:28 PM
Waxing Crescent, 29% visible
METAR KFMM 130935Z AUTO 12006KT 7SM CLR M01/M02 A3016 RMK AO2 T10111016

10-Day Weather Forecast

Almanac

Astronomy

Feb. 13, 2016 Rise Set
Actual Time
Civil Twilight
Nautical Twilight
Astronomical Twilight
Moon
Length of Visible Light
Length of Day
Tomorrow will be .
, % of the Moon is Illuminated

Today's Extremes

State Highs State Lows

Community

WunderPhotos

Upload Photos

1,892,536 photos uploaded!

WunderBlog® & News

Nearby

Air Quality

  Air Quality AQ Index Pollutant
Not available.

Snow Depth

Station Depth Elevation

Earthquake Activity

City Distance Mag. Time & Date
Minimum magnitude displayed is 2.5.

Coastal Water Temperatures

Place Temperature

Stations

Nearby Weather Stations

Station Location Temp. Windchill Dew Point Humidity Wind Precip. Elev Updated Type
                   

Watches & Warnings

There are currently no watches in effect.